createdAt,value
2023-03-25T00:02:20.931Z,99899.81
2023-03-25T00:04:54.580Z,99907.47
2023-03-25T00:07:22.763Z,99907.97
2023-03-25T00:09:49.532Z,99909.63
2023-03-25T00:12:18.902Z,99905.34
2023-03-25T00:14:54.681Z,99900.50
2023-03-25T00:17:29.203Z,99909.94
2023-03-25T00:19:55.719Z,99915.06
2023-03-25T00:22:22.587Z,99928.28
2023-03-25T00:24:49.211Z,99907.31
2023-03-25T00:27:17.611Z,99910.38
2023-03-25T00:29:44.978Z,99911.31
2023-03-25T00:32:12.798Z,99912.44
2023-03-25T00:34:47.206Z,99908.44
2023-03-25T00:37:21.637Z,99926.53
2023-03-25T00:39:48.790Z,99910.47
2023-03-25T00:42:26.027Z,99913.72
2023-03-25T00:44:53.422Z,99912.00
2023-03-25T00:47:21.837Z,99905.63
2023-03-25T00:49:49.693Z,99904.91
2023-03-25T00:52:16.578Z,99903.97
2023-03-25T00:54:43.271Z,99904.13
2023-03-25T00:57:09.905Z,99913.16
2023-03-25T00:59:36.418Z,99914.22
2023-03-25T01:02:03.648Z,99909.94
2023-03-25T01:04:30.188Z,99904.31
2023-03-25T01:06:56.729Z,99908.53
2023-03-25T01:09:23.231Z,99907.47
2023-03-25T01:11:49.812Z,99905.19
2023-03-25T01:14:19.994Z,99933.09
2023-03-25T01:16:46.820Z,99905.69
2023-03-25T01:19:14.572Z,99903.19
2023-03-25T01:21:41.794Z,99905.91
2023-03-25T01:24:13.082Z,99907.09
2023-03-25T01:26:41.315Z,99904.38
2023-03-25T01:29:08.029Z,99904.72
2023-03-25T01:31:34.584Z,99891.28
2023-03-25T01:34:01.100Z,99882.31
2023-03-25T01:36:29.764Z,99883.88
2023-03-25T01:38:59.041Z,99881.88
2023-03-25T01:41:35.681Z,99879.75
2023-03-25T01:44:29.757Z,99877.16
2023-03-25T01:46:59.298Z,99895.53
2023-03-25T01:49:33.120Z,99890.53
2023-03-25T01:52:06.677Z,99889.75
2023-03-25T01:54:33.790Z,99903.03
2023-03-25T01:57:00.652Z,99883.41
2023-03-25T01:59:29.437Z,99872.94
2023-03-25T02:02:01.614Z,99867.53
2023-03-25T02:04:40.458Z,99878.75
2023-03-25T02:07:08.898Z,99868.28
2023-03-25T02:09:36.241Z,99871.34
2023-03-25T02:12:02.761Z,99873.72
2023-03-25T02:14:32.788Z,99882.66
2023-03-25T02:17:17.291Z,99883.50
2023-03-25T02:20:09.018Z,99873.22
2023-03-25T02:22:57.094Z,99879.31
2023-03-25T02:25:46.047Z,99877.81
2023-03-25T02:28:40.013Z,99890.22
2023-03-25T02:31:39.818Z,99879.59
2023-03-25T02:34:22.621Z,99883.22
2023-03-25T02:37:07.046Z,99893.00
2023-03-25T02:39:52.619Z,99902.31
2023-03-25T02:42:31.068Z,99889.59
2023-03-25T02:45:13.508Z,99882.66
2023-03-25T02:47:55.001Z,99874.47
2023-03-25T02:50:28.222Z,99882.66
2023-03-25T02:52:59.537Z,99872.50
2023-03-25T02:55:30.553Z,99887.75
2023-03-25T02:57:59.260Z,99894.81
2023-03-25T03:00:29.827Z,99866.53
2023-03-25T03:03:05.329Z,99888.88
2023-03-25T03:05:44.932Z,99890.53
2023-03-25T03:08:23.470Z,99883.50
2023-03-25T03:10:53.057Z,99883.22
2023-03-25T03:13:19.447Z,99868.00
2023-03-25T03:15:57.688Z,99872.00
2023-03-25T03:18:38.117Z,99872.31
2023-03-25T03:21:40.879Z,99871.47
2023-03-25T03:24:21.065Z,99889.75
2023-03-25T03:26:59.485Z,99872.44
2023-03-25T03:29:32.278Z,99881.13
2023-03-25T03:32:11.568Z,99882.31
2023-03-25T03:34:47.016Z,99879.50
2023-03-25T03:37:16.765Z,99868.78
2023-03-25T03:39:48.998Z,99873.97
2023-03-25T03:42:41.366Z,99868.91
2023-03-25T03:45:23.002Z,99880.09
2023-03-25T03:47:53.713Z,99870.53
2023-03-25T03:50:29.184Z,99884.31
2023-03-25T03:53:08.495Z,99872.69
2023-03-25T03:55:44.314Z,99872.19
2023-03-25T03:58:25.358Z,99879.56
2023-03-25T04:01:03.134Z,99873.28
2023-03-25T04:03:40.727Z,99866.56
2023-03-25T04:06:21.030Z,99871.31
2023-03-25T04:08:58.725Z,99864.09
2023-03-25T04:11:33.605Z,99874.63
2023-03-25T04:14:02.588Z,99863.88
2023-03-25T04:16:29.039Z,99872.47
2023-03-25T04:18:55.602Z,99877.72
2023-03-25T04:21:22.247Z,99874.81
2023-03-25T04:23:51.927Z,99879.31
2023-03-25T04:26:18.835Z,99873.47
2023-03-25T04:28:45.647Z,99863.25
2023-03-25T04:31:17.967Z,99863.00
2023-03-25T04:33:48.376Z,99856.44
2023-03-25T04:36:15.755Z,99877.56
2023-03-25T04:38:45.690Z,99872.03
2023-03-25T04:41:13.863Z,99886.81
2023-03-25T04:43:41.798Z,99865.66
2023-03-25T04:46:15.112Z,99879.63
2023-03-25T04:48:45.509Z,99876.97
2023-03-25T04:51:14.560Z,99865.53
2023-03-25T04:53:41.874Z,99862.09
2023-03-25T04:56:16.134Z,99865.91
2023-03-25T04:58:43.727Z,99851.94
2023-03-25T05:01:42.157Z,99859.28
2023-03-25T05:04:12.508Z,99882.00
2023-03-25T05:06:41.780Z,99878.50
2023-03-25T05:09:14.232Z,99873.06
2023-03-25T05:11:41.812Z,99859.53
2023-03-25T05:14:13.655Z,99858.63
2023-03-25T05:16:40.846Z,99861.31
2023-03-25T05:19:07.705Z,99865.78
2023-03-25T05:21:36.057Z,99883.47
2023-03-25T05:24:03.772Z,99873.69
2023-03-25T05:26:34.322Z,99875.84
2023-03-25T05:29:04.978Z,99867.72
2023-03-25T05:31:31.851Z,99870.13
2023-03-25T05:34:06.486Z,99888.25
2023-03-25T05:36:32.967Z,99873.66
2023-03-25T05:39:05.408Z,99875.06
2023-03-25T05:41:39.120Z,99872.59
2023-03-25T05:44:12.917Z,99871.44
2023-03-25T05:46:39.364Z,99869.94
2023-03-25T05:49:05.784Z,99869.53
2023-03-25T05:51:37.674Z,99876.84
2023-03-25T05:54:11.185Z,99861.56
2023-03-25T05:56:38.592Z,99877.53
2023-03-25T05:59:05.127Z,99877.97
2023-03-25T06:01:34.710Z,99892.25
2023-03-25T06:04:02.865Z,99897.25
2023-03-25T06:06:32.120Z,99867.63
2023-03-25T06:08:59.075Z,99873.63
2023-03-25T06:11:25.731Z,99882.34
2023-03-25T06:13:52.516Z,99884.38
2023-03-25T06:16:27.869Z,99870.59
2023-03-25T06:18:59.644Z,99871.81
2023-03-25T06:21:33.293Z,99877.19
2023-03-25T06:24:01.390Z,99886.25
2023-03-25T06:26:31.686Z,99881.44
2023-03-25T06:28:58.486Z,99898.22
2023-03-25T06:31:26.721Z,99883.56
2023-03-25T06:33:54.624Z,99897.56
2023-03-25T06:36:21.411Z,99893.72
2023-03-25T06:38:50.323Z,99891.31
2023-03-25T06:41:20.890Z,99881.91
2023-03-25T06:43:48.548Z,99896.72
2023-03-25T06:46:16.232Z,99901.91
2023-03-25T06:48:42.806Z,99891.78
2023-03-25T06:51:09.268Z,99894.19
2023-03-25T06:53:35.832Z,99906.50
2023-03-25T06:56:02.400Z,99906.66
2023-03-25T06:58:35.211Z,99908.78
2023-03-25T07:01:06.695Z,99903.09
2023-03-25T07:03:34.453Z,99908.44
2023-03-25T07:06:00.927Z,99899.69
2023-03-25T07:08:34.412Z,99901.63
2023-03-25T07:11:05.725Z,99907.31
2023-03-25T07:13:32.259Z,99893.03
2023-03-25T07:16:00.821Z,99909.06
2023-03-25T07:18:27.793Z,99908.00
2023-03-25T07:20:54.619Z,99911.34
2023-03-25T07:23:21.208Z,99902.13
2023-03-25T07:25:48.079Z,99906.75
2023-03-25T07:28:14.815Z,99896.94
2023-03-25T07:30:41.373Z,99935.84
2023-03-25T07:33:07.850Z,99901.97
2023-03-25T07:35:34.412Z,99910.88
2023-03-25T07:38:00.913Z,99924.84
2023-03-25T07:40:27.364Z,99909.75
2023-03-25T07:42:53.826Z,99931.78
2023-03-25T07:45:20.326Z,99919.88
2023-03-25T07:47:50.384Z,99927.19
2023-03-25T07:50:18.496Z,99942.19
2023-03-25T07:52:45.552Z,99951.22
2023-03-25T07:55:13.126Z,99933.59
2023-03-25T07:57:40.859Z,99940.22
2023-03-25T08:00:08.156Z,99951.41
2023-03-25T08:02:34.838Z,99937.38
2023-03-25T08:05:03.263Z,99941.78
2023-03-25T08:07:31.456Z,99940.44
2023-03-25T08:09:57.903Z,99942.97
2023-03-25T08:12:24.442Z,99942.47
2023-03-25T08:14:51.180Z,99946.16
2023-03-25T08:17:17.675Z,99939.31
2023-03-25T08:19:44.166Z,99942.34
2023-03-25T08:22:11.059Z,99948.44
2023-03-25T08:24:37.647Z,99947.34
2023-03-25T08:27:16.277Z,99943.28
2023-03-25T08:29:44.526Z,99935.75
2023-03-25T08:32:11.156Z,99930.28
2023-03-25T08:34:39.838Z,99938.31
2023-03-25T08:37:10.120Z,99942.59
2023-03-25T08:39:39.951Z,99946.22
2023-03-25T08:42:08.168Z,99937.00
2023-03-25T08:44:35.462Z,99949.63
2023-03-25T08:47:01.974Z,99942.59
2023-03-25T08:49:28.425Z,99938.09
2023-03-25T08:51:57.523Z,99944.88
2023-03-25T08:54:26.040Z,99930.72
2023-03-25T08:56:52.909Z,99935.78
2023-03-25T08:59:19.687Z,99953.47
2023-03-25T09:01:46.565Z,99931.44
2023-03-25T09:04:13.890Z,99937.81
2023-03-25T09:06:48.091Z,99950.56
2023-03-25T09:09:27.456Z,99957.91
2023-03-25T09:11:54.427Z,99971.16
2023-03-25T09:14:20.886Z,99967.44
2023-03-25T09:16:47.332Z,99943.66
2023-03-25T09:19:13.748Z,99946.72
2023-03-25T09:21:40.229Z,99946.22
2023-03-25T09:24:08.908Z,99955.81
2023-03-25T09:26:36.977Z,99947.38
2023-03-25T09:29:03.740Z,99923.75
2023-03-25T09:31:30.563Z,99939.47
2023-03-25T09:33:57.097Z,99924.47
2023-03-25T09:36:23.563Z,99949.44
2023-03-25T09:38:50.098Z,99976.72
2023-03-25T09:41:32.707Z,99962.25
2023-03-25T09:44:14.218Z,99964.56
2023-03-25T09:46:41.176Z,99965.06
2023-03-25T09:49:16.434Z,99968.84
2023-03-25T09:51:46.291Z,99965.47
2023-03-25T09:54:37.212Z,99957.19
2023-03-25T09:57:11.774Z,99952.72
2023-03-25T09:59:44.421Z,99969.00
2023-03-25T10:02:33.410Z,99968.41
2023-03-25T10:05:15.545Z,99960.94
2023-03-25T10:08:03.434Z,99966.53
2023-03-25T10:10:59.588Z,99961.59
2023-03-25T10:13:26.018Z,99972.50
2023-03-25T10:15:58.398Z,99972.41
2023-03-25T10:18:32.524Z,99985.41
2023-03-25T10:21:20.773Z,99998.28
2023-03-25T10:24:21.419Z,100003.00
2023-03-25T10:26:59.970Z,100012.28
2023-03-25T10:29:34.470Z,100003.97
2023-03-25T10:32:07.377Z,99993.66
2023-03-25T10:34:46.703Z,99997.03
2023-03-25T10:37:21.629Z,100000.66
2023-03-25T10:39:49.856Z,99976.91
2023-03-25T10:42:30.537Z,99979.50
2023-03-25T10:44:57.500Z,99984.66
2023-03-25T10:47:31.086Z,99975.16
2023-03-25T10:49:59.382Z,99984.97
2023-03-25T10:52:26.142Z,99989.81
2023-03-25T10:54:56.125Z,99993.31
2023-03-25T10:57:28.998Z,99993.16
2023-03-25T11:00:16.848Z,99985.22
2023-03-25T11:02:43.434Z,99991.44
2023-03-25T11:05:10.034Z,100007.81
2023-03-25T11:07:40.326Z,99993.34
2023-03-25T11:10:14.531Z,99994.75
2023-03-25T11:12:46.460Z,100001.81
2023-03-25T11:15:15.292Z,100008.94
2023-03-25T11:17:42.761Z,100004.13
2023-03-25T11:20:19.075Z,100006.09
2023-03-25T11:22:49.941Z,99996.00
2023-03-25T11:25:21.297Z,99994.19
2023-03-25T11:27:52.880Z,100000.19
2023-03-25T11:30:22.437Z,99988.78
2023-03-25T11:33:07.901Z,99972.03
2023-03-25T11:35:44.088Z,99977.91
2023-03-25T11:38:22.091Z,99962.72
2023-03-25T11:40:59.174Z,99976.88
2023-03-25T11:43:29.778Z,99972.31
2023-03-25T11:45:56.542Z,99972.63
2023-03-25T11:48:28.651Z,99972.34
2023-03-25T11:51:01.915Z,99967.75
2023-03-25T11:53:32.110Z,99969.28
2023-03-25T11:56:12.067Z,99977.72
2023-03-25T11:58:40.603Z,99963.94
2023-03-25T12:01:36.783Z,99964.25
2023-03-25T12:04:22.839Z,99962.16
2023-03-25T12:06:57.834Z,99960.88
2023-03-25T12:09:30.459Z,99961.09
2023-03-25T12:12:29.660Z,99962.94
2023-03-25T12:15:26.278Z,99960.84
2023-03-25T12:18:06.995Z,99957.41
2023-03-25T12:20:52.067Z,99956.09
2023-03-25T12:23:43.827Z,99967.28
2023-03-25T12:26:24.372Z,99945.44
2023-03-25T12:29:17.834Z,99945.78
2023-03-25T12:31:44.263Z,99954.28
2023-03-25T12:34:29.046Z,99963.13
2023-03-25T12:36:55.503Z,99953.56
2023-03-25T12:39:42.920Z,99944.59
2023-03-25T12:42:25.685Z,99962.56
2023-03-25T12:45:24.478Z,99955.50
2023-03-25T12:48:10.508Z,99948.94
2023-03-25T12:50:54.727Z,99936.94
2023-03-25T12:53:35.986Z,99948.75
2023-03-25T12:56:05.127Z,99924.69
2023-03-25T12:58:40.623Z,99928.59
2023-03-25T13:01:19.388Z,99951.91
2023-03-25T13:03:55.109Z,99932.88
2023-03-25T13:06:30.303Z,99921.13
2023-03-25T13:09:04.096Z,99925.72
2023-03-25T13:11:40.991Z,99937.97
2023-03-25T13:14:17.569Z,99945.56
2023-03-25T13:16:46.265Z,99989.31
2023-03-25T13:19:22.813Z,99929.28
2023-03-25T13:22:24.021Z,99955.25
2023-03-25T13:24:59.198Z,99957.06
2023-03-25T13:27:26.276Z,99939.84
2023-03-25T13:29:56.601Z,99933.94
2023-03-25T13:32:47.954Z,99945.22
2023-03-25T13:35:20.031Z,99949.25
2023-03-25T13:37:50.192Z,99957.09
2023-03-25T13:40:33.774Z,99944.56
2023-03-25T13:43:13.375Z,99948.56
2023-03-25T13:46:08.816Z,99937.53
2023-03-25T13:48:46.051Z,99950.44
2023-03-25T13:51:12.691Z,99952.09
2023-03-25T13:53:51.779Z,99931.91
2023-03-25T13:56:50.460Z,99954.41
2023-03-25T13:59:54.351Z,99951.03
2023-03-25T14:02:32.106Z,99955.75
2023-03-25T14:05:34.807Z,99956.44
2023-03-25T14:08:07.677Z,99990.84
2023-03-25T14:11:11.490Z,99979.53
2023-03-25T14:13:54.606Z,99975.59
2023-03-25T14:16:25.925Z,99975.59
2023-03-25T14:18:56.470Z,99987.16
2023-03-25T14:21:41.126Z,99977.97
2023-03-25T14:24:31.464Z,99996.44
2023-03-25T14:27:07.359Z,100001.47
2023-03-25T14:29:55.694Z,99992.06
2023-03-25T14:32:22.132Z,99982.06
2023-03-25T14:34:50.195Z,99988.38
2023-03-25T14:37:26.080Z,99989.88
2023-03-25T14:39:55.182Z,100001.06
2023-03-25T14:42:21.587Z,100003.25
2023-03-25T14:44:54.147Z,99992.66
2023-03-25T14:47:20.739Z,100001.94
2023-03-25T14:49:50.295Z,99990.88
2023-03-25T14:52:22.712Z,99981.53
2023-03-25T14:54:53.123Z,99995.53
2023-03-25T14:57:26.127Z,100009.16
2023-03-25T15:00:03.283Z,99988.84
2023-03-25T15:02:33.362Z,99986.03
2023-03-25T15:05:22.551Z,99990.75
2023-03-25T15:07:57.039Z,99974.25
2023-03-25T15:10:36.627Z,100003.34
2023-03-25T15:13:28.946Z,100004.22
2023-03-25T15:16:00.728Z,99996.19
2023-03-25T15:18:53.149Z,100004.25
2023-03-25T15:21:24.491Z,99995.84
2023-03-25T15:23:50.911Z,99987.34
2023-03-25T15:26:41.953Z,99988.22
2023-03-25T15:29:20.816Z,99977.97
2023-03-25T15:32:12.011Z,99996.56
2023-03-25T15:35:03.541Z,99986.06
2023-03-25T15:37:57.861Z,99977.31
2023-03-25T15:40:49.700Z,99992.47
2023-03-25T15:43:34.289Z,99979.81
2023-03-25T15:46:25.472Z,99976.59
2023-03-25T15:48:51.866Z,99985.81
2023-03-25T15:51:31.734Z,99996.16
2023-03-25T15:54:35.643Z,99979.28
2023-03-25T15:57:14.563Z,99973.13
2023-03-25T15:59:50.408Z,100000.88
2023-03-25T16:02:42.747Z,99989.50
2023-03-25T16:05:14.255Z,99995.81
2023-03-25T16:07:42.289Z,99997.06
2023-03-25T16:10:14.995Z,99997.78
2023-03-25T16:12:43.464Z,99989.78
2023-03-25T16:15:26.966Z,99986.72
2023-03-25T16:17:54.459Z,99997.53
2023-03-25T16:20:27.628Z,99995.16
2023-03-25T16:22:57.412Z,99988.47
2023-03-25T16:25:35.529Z,99988.59
2023-03-25T16:28:07.814Z,99992.81
2023-03-25T16:30:42.673Z,99988.50
2023-03-25T16:33:11.919Z,100002.03
2023-03-25T16:35:41.688Z,100008.94
2023-03-25T16:38:13.338Z,99997.34
2023-03-25T16:40:42.068Z,99995.31
2023-03-25T16:43:24.003Z,100004.81
2023-03-25T16:45:55.640Z,100015.56
2023-03-25T16:48:28.343Z,100018.13
2023-03-25T16:50:57.540Z,100086.59
2023-03-25T16:53:25.382Z,100034.50
2023-03-25T16:56:14.826Z,100031.75
2023-03-25T16:58:58.801Z,100033.44
2023-03-25T17:01:26.062Z,100036.16
2023-03-25T17:04:05.282Z,100035.06
2023-03-25T17:06:39.327Z,100044.63
2023-03-25T17:09:15.242Z,100051.88
2023-03-25T17:11:41.855Z,100037.84
2023-03-25T17:14:17.867Z,100046.03
2023-03-25T17:16:48.227Z,100044.03
2023-03-25T17:19:16.339Z,100041.47
2023-03-25T17:22:03.350Z,100050.16
2023-03-25T17:24:38.871Z,100050.50
2023-03-25T17:27:17.018Z,100056.38
2023-03-25T17:29:51.987Z,100067.25
2023-03-25T17:32:18.730Z,100063.75
2023-03-25T17:34:55.838Z,100066.25
2023-03-25T17:37:25.035Z,100065.97
2023-03-25T17:39:51.875Z,100068.09
2023-03-25T17:42:24.713Z,100076.66
2023-03-25T17:44:52.104Z,100077.69
2023-03-25T17:47:21.031Z,100089.31
2023-03-25T17:49:47.960Z,100083.69
2023-03-25T17:52:14.554Z,100090.66
2023-03-25T17:54:41.188Z,100103.06
2023-03-25T17:57:14.177Z,100088.88
2023-03-25T17:59:40.865Z,100109.81
2023-03-25T18:02:12.565Z,100108.13
2023-03-25T18:04:39.454Z,100102.47
2023-03-25T18:07:06.033Z,100108.19
2023-03-25T18:09:32.850Z,100122.47
2023-03-25T18:11:59.941Z,100101.25
2023-03-25T18:14:26.750Z,100131.47
2023-03-25T18:16:54.609Z,100110.94
2023-03-25T18:19:23.958Z,100121.06
2023-03-25T18:21:50.641Z,100128.47
2023-03-25T18:24:17.234Z,100121.13
2023-03-25T18:26:44.579Z,100123.19
2023-03-25T18:29:24.779Z,100127.72
2023-03-25T18:31:52.364Z,100145.91
2023-03-25T18:34:20.575Z,100159.28
2023-03-25T18:36:47.180Z,100158.09
2023-03-25T18:39:19.584Z,100159.50
2023-03-25T18:41:46.029Z,100155.00
2023-03-25T18:44:12.612Z,100162.47
2023-03-25T18:46:40.272Z,100164.13
2023-03-25T18:49:16.800Z,100169.06
2023-03-25T18:51:44.034Z,100166.69
2023-03-25T18:54:11.178Z,100150.94
2023-03-25T18:56:38.213Z,100150.28
2023-03-25T18:59:04.782Z,100155.81
2023-03-25T19:01:31.424Z,100153.38
2023-03-25T19:04:02.760Z,100141.44
2023-03-25T19:06:30.818Z,100147.09
2023-03-25T19:08:57.748Z,100156.75
2023-03-25T19:11:25.786Z,100140.69
2023-03-25T19:13:52.461Z,100140.69
2023-03-25T19:16:19.703Z,100140.75
2023-03-25T19:18:47.343Z,100139.75
2023-03-25T19:21:18.892Z,100135.91
2023-03-25T19:23:46.447Z,100149.75
2023-03-25T19:26:13.478Z,100159.09
2023-03-25T19:28:40.968Z,100171.31
2023-03-25T19:31:07.486Z,100206.59
2023-03-25T19:33:34.075Z,100207.47
2023-03-25T19:36:01.841Z,100206.47
2023-03-25T19:38:30.065Z,100220.00
2023-03-25T19:41:08.417Z,100239.16
2023-03-25T19:43:35.181Z,100218.50
2023-03-25T19:46:02.224Z,100226.06
2023-03-25T19:48:29.941Z,100220.84
2023-03-25T19:50:57.260Z,100204.31
2023-03-25T19:53:25.419Z,100209.00
2023-03-25T19:55:52.809Z,100209.03
2023-03-25T19:58:22.603Z,100210.66
2023-03-25T20:00:49.236Z,100226.88
2023-03-25T20:03:15.813Z,100211.44
2023-03-25T20:05:42.711Z,100214.13
2023-03-25T20:08:09.570Z,100216.16
2023-03-25T20:10:38.661Z,100220.09
2023-03-25T20:13:05.366Z,100225.56
2023-03-25T20:15:32.219Z,100211.41
2023-03-25T20:17:59.371Z,100221.03
2023-03-25T20:20:26.295Z,100244.25
2023-03-25T20:22:52.883Z,100236.50
2023-03-25T20:25:19.770Z,100235.38
2023-03-25T20:27:47.069Z,100234.59
2023-03-25T20:30:16.567Z,100227.94
2023-03-25T20:32:45.699Z,100223.59
2023-03-25T20:35:16.532Z,100236.97
2023-03-25T20:37:45.219Z,100227.91
2023-03-25T20:40:14.329Z,100224.41
2023-03-25T20:42:42.398Z,100220.84
2023-03-25T20:45:11.081Z,100221.97
2023-03-25T20:47:37.701Z,100214.09
2023-03-25T20:50:05.344Z,100232.34
2023-03-25T20:52:32.022Z,100228.78
2023-03-25T20:54:58.583Z,100228.47
2023-03-25T20:57:25.121Z,100225.69
2023-03-25T20:59:52.855Z,100236.34
2023-03-25T21:02:21.392Z,100228.44
2023-03-25T21:04:48.342Z,100234.69
2023-03-25T21:07:19.047Z,100233.19
2023-03-25T21:09:47.756Z,100238.72
2023-03-25T21:12:14.483Z,100237.50
2023-03-25T21:14:41.295Z,100232.03
2023-03-25T21:17:07.824Z,100234.38
2023-03-25T21:19:34.393Z,100235.25
2023-03-25T21:22:00.950Z,100233.53
2023-03-25T21:24:27.428Z,100253.69
2023-03-25T21:26:53.926Z,100245.78
2023-03-25T21:29:20.946Z,100260.03
2023-03-25T21:31:47.708Z,100267.56
2023-03-25T21:34:15.782Z,100263.19
2023-03-25T21:36:43.081Z,100260.81
2023-03-25T21:39:10.302Z,100263.25
2023-03-25T21:41:37.086Z,100262.44
2023-03-25T21:44:05.359Z,100271.13
2023-03-25T21:46:33.529Z,100268.72
2023-03-25T21:49:02.315Z,100264.00
2023-03-25T21:51:35.846Z,100279.44
2023-03-25T21:54:02.633Z,100269.56
2023-03-25T21:56:32.331Z,100270.34
2023-03-25T21:58:58.945Z,100277.47
2023-03-25T22:01:29.698Z,100281.84
2023-03-25T22:03:58.218Z,100275.19
2023-03-25T22:06:28.552Z,100275.97
2023-03-25T22:08:57.094Z,100286.63
2023-03-25T22:11:31.208Z,100282.31
2023-03-25T22:13:58.240Z,100282.69
2023-03-25T22:16:25.424Z,100287.81
2023-03-25T22:18:53.373Z,100298.53
2023-03-25T22:21:25.893Z,100298.88
2023-03-25T22:23:57.883Z,100297.72
2023-03-25T22:26:26.426Z,100291.44
2023-03-25T22:28:56.525Z,100296.16
2023-03-25T22:31:30.780Z,100297.31
2023-03-25T22:34:10.962Z,100297.38
2023-03-25T22:36:43.287Z,100311.59
2023-03-25T22:39:10.356Z,100294.16
2023-03-25T22:41:37.023Z,100304.06
2023-03-25T22:44:03.597Z,100304.53
2023-03-25T22:46:32.064Z,100304.41
2023-03-25T22:48:58.581Z,100309.19
2023-03-25T22:51:25.405Z,100308.00
2023-03-25T22:53:51.858Z,100300.47
2023-03-25T22:56:18.463Z,100313.94
2023-03-25T22:58:45.149Z,100322.56
2023-03-25T23:01:23.711Z,100322.19
2023-03-25T23:03:51.791Z,100320.22
2023-03-25T23:06:18.437Z,100326.16
2023-03-25T23:08:45.218Z,100321.03
2023-03-25T23:11:21.302Z,100324.59
2023-03-25T23:13:51.713Z,100326.56
2023-03-25T23:16:20.496Z,100321.44
2023-03-25T23:18:47.327Z,100334.81
2023-03-25T23:21:21.017Z,100329.66
2023-03-25T23:23:52.829Z,100328.13
2023-03-25T23:26:26.382Z,100336.81
2023-03-25T23:28:56.383Z,100328.13
2023-03-25T23:31:28.454Z,100336.81
2023-03-25T23:33:57.484Z,100329.28
2023-03-25T23:36:26.025Z,100320.94
2023-03-25T23:38:53.586Z,100331.25
2023-03-25T23:41:25.607Z,100340.34
2023-03-25T23:43:53.685Z,100341.09
2023-03-25T23:46:21.337Z,100342.25
2023-03-25T23:48:48.428Z,100343.06
2023-03-25T23:51:20.100Z,100347.75
2023-03-25T23:53:48.337Z,100337.94
2023-03-25T23:56:17.034Z,100336.69
2023-03-25T23:58:44.504Z,100344.56
